createdAt,value
2019-05-22T00:00:54.328Z,17.59
2019-05-22T00:02:07.058Z,17.59
2019-05-22T00:02:54.319Z,17.58
2019-05-22T00:03:54.347Z,17.58
2019-05-22T00:04:54.325Z,17.62
2019-05-22T00:05:54.298Z,17.64
2019-05-22T00:06:54.317Z,17.66
2019-05-22T00:07:54.286Z,17.66
2019-05-22T00:08:54.288Z,17.66
2019-05-22T00:09:54.281Z,17.64
2019-05-22T00:10:54.270Z,17.74
2019-05-22T00:11:54.289Z,17.74
2019-05-22T00:12:54.025Z,17.72
2019-05-22T00:13:54.260Z,17.72
2019-05-22T00:14:54.252Z,17.75
2019-05-22T00:15:54.247Z,17.75
2019-05-22T00:16:54.004Z,17.72
2019-05-22T00:17:54.252Z,17.82
2019-05-22T00:18:54.233Z,17.81
2019-05-22T00:19:54.290Z,17.84
2019-05-22T00:21:07.020Z,17.74
2019-05-22T00:21:53.973Z,17.78
2019-05-22T00:22:54.212Z,17.79
2019-05-22T00:23:54.207Z,17.84
2019-05-22T00:24:54.235Z,17.86
2019-05-22T00:25:54.203Z,17.93
2019-05-22T00:26:54.258Z,17.86
2019-05-22T00:27:54.197Z,17.84
2019-05-22T00:28:54.182Z,17.75
2019-05-22T00:29:54.174Z,17.89
2019-05-22T00:30:54.177Z,17.87
2019-05-22T00:31:54.201Z,17.86
2019-05-22T00:32:54.161Z,17.89
2019-05-22T00:33:54.161Z,17.79
2019-05-22T00:34:54.151Z,17.78
2019-05-22T00:35:54.203Z,17.9
2019-05-22T00:36:53.899Z,17.89
2019-05-22T00:37:54.145Z,17.81
2019-05-22T00:38:54.133Z,17.77
2019-05-22T00:39:54.208Z,17.86
2019-05-22T00:40:54.121Z,17.78
2019-05-22T00:41:54.122Z,17.86
2019-05-22T00:43:13.077Z,17.87
2019-05-22T00:43:53.863Z,17.87
2019-05-22T00:44:54.103Z,17.81
2019-05-22T00:45:54.101Z,17.79
2019-05-22T00:46:54.091Z,17.82
2019-05-22T00:47:54.085Z,17.78
2019-05-22T00:49:06.927Z,17.82
2019-05-22T00:49:54.096Z,17.86
2019-05-22T00:50:54.077Z,17.82
2019-05-22T00:51:54.174Z,17.87
2019-05-22T00:52:53.820Z,17.86
2019-05-22T00:53:54.075Z,17.89
2019-05-22T00:54:54.052Z,17.78
2019-05-22T00:55:54.059Z,17.82
2019-05-22T00:56:53.797Z,17.81
2019-05-22T00:57:54.041Z,17.72
2019-05-22T00:58:54.038Z,17.71
2019-05-22T00:59:54.029Z,17.66
2019-05-22T01:00:54.029Z,17.7
2019-05-22T01:01:53.771Z,17.71
2019-05-22T01:02:54.017Z,17.66
2019-05-22T01:03:56.555Z,17.64
2019-05-22T01:04:54.012Z,17.59
2019-05-22T01:05:53.999Z,17.62
2019-05-22T01:06:53.964Z,17.71
2019-05-22T01:07:53.989Z,17.56
2019-05-22T01:08:53.984Z,17.62
2019-05-22T01:09:54.059Z,17.54
2019-05-22T01:10:53.733Z,17.56
2019-05-22T01:11:53.973Z,17.58
2019-05-22T01:12:53.964Z,17.52
2019-05-22T01:13:53.974Z,17.43
2019-05-22T01:14:53.948Z,17.4
2019-05-22T01:15:53.703Z,17.44
2019-05-22T01:17:06.674Z,17.37
2019-05-22T01:17:54.024Z,17.22
2019-05-22T01:18:53.718Z,17.36
2019-05-22T01:19:53.994Z,17.36
2019-05-22T01:20:53.967Z,17.34
2019-05-22T01:21:53.923Z,17.28
2019-05-22T01:22:53.674Z,17.34
2019-05-22T01:23:53.915Z,17.36
2019-05-22T01:24:53.662Z,17.28
2019-05-22T01:25:53.655Z,17.33
2019-05-22T01:26:53.648Z,17.31
2019-05-22T01:27:53.884Z,17.26
2019-05-22T01:28:53.875Z,17.3
2019-05-22T01:29:53.925Z,17.34
2019-05-22T01:30:53.379Z,17.28
2019-05-22T01:31:53.860Z,17.25
2019-05-22T01:32:53.894Z,17.23
2019-05-22T01:33:53.850Z,17.34
2019-05-22T01:34:53.926Z,17.3
2019-05-22T01:35:53.596Z,17.25
2019-05-22T01:36:53.838Z,17.26
2019-05-22T01:37:53.837Z,17.25
2019-05-22T01:38:53.863Z,17.23
2019-05-22T01:39:53.821Z,17.25
2019-05-22T01:40:53.584Z,17.26
2019-05-22T01:41:53.819Z,17.3
2019-05-22T01:42:53.590Z,17.15
2019-05-22T01:43:53.561Z,17.18
2019-05-22T01:45:09.400Z,17.18
2019-05-22T01:45:53.547Z,17.11
2019-05-22T01:46:53.543Z,17.16
2019-05-22T01:47:53.778Z,17.07
2019-05-22T01:48:53.779Z,17.15
2019-05-22T01:49:53.777Z,17.22
2019-05-22T01:50:53.278Z,17.22
2019-05-22T01:51:53.512Z,17.14
2019-05-22T01:52:53.802Z,17.19
2019-05-22T01:54:06.648Z,17.11
2019-05-22T01:54:53.534Z,17.18
2019-05-22T01:55:53.751Z,17.08
2019-05-22T01:56:53.744Z,17.07
2019-05-22T01:57:53.729Z,17.12
2019-05-22T01:58:53.723Z,17.06
2019-05-22T01:59:53.717Z,17.07
2019-05-22T02:00:53.468Z,17.01
2019-05-22T02:01:53.464Z,17.07
2019-05-22T02:02:53.703Z,17.03
2019-05-22T02:03:53.701Z,17.06
2019-05-22T02:05:06.426Z,16.96
2019-05-22T02:06:06.511Z,16.93
2019-05-22T02:06:53.444Z,16.89
2019-05-22T02:07:53.736Z,16.98
2019-05-22T02:08:53.671Z,16.88
2019-05-22T02:09:53.660Z,16.83
2019-05-22T02:10:53.662Z,16.88
2019-05-22T02:11:53.422Z,16.83
2019-05-22T02:12:53.652Z,16.83
2019-05-22T02:13:53.639Z,16.79
2019-05-22T02:14:53.633Z,16.79
2019-05-22T02:15:53.382Z,16.75
2019-05-22T02:17:01.904Z,16.78
2019-05-22T02:17:56.418Z,16.78
2019-05-22T02:18:53.613Z,16.82
2019-05-22T02:19:53.608Z,16.79
2019-05-22T02:20:53.356Z,16.78
2019-05-22T02:21:53.607Z,16.78
2019-05-22T02:22:53.594Z,16.76
2019-05-22T02:23:53.671Z,16.75
2019-05-22T02:24:53.662Z,16.75
2019-05-22T02:25:53.575Z,16.71
2019-05-22T02:26:53.328Z,16.75
2019-05-22T02:27:53.880Z,16.68
2019-05-22T02:28:53.554Z,16.73
2019-05-22T02:29:53.558Z,16.73
2019-05-22T02:30:53.570Z,16.7
2019-05-22T02:31:57.270Z,16.68
2019-05-22T02:32:53.544Z,16.68
2019-05-22T02:33:53.526Z,16.63
2019-05-22T02:34:53.522Z,16.66
2019-05-22T02:35:53.522Z,16.66
2019-05-22T02:37:05.737Z,16.52
2019-05-22T02:37:53.511Z,16.58
2019-05-22T02:38:59.782Z,16.56
2019-05-22T02:39:53.502Z,16.53
2019-05-22T02:40:53.494Z,16.52
2019-05-22T02:41:53.251Z,16.57
2019-05-22T02:42:53.491Z,16.66
2019-05-22T02:43:53.478Z,16.63
2019-05-22T02:44:53.325Z,16.56
2019-05-22T02:45:53.224Z,16.6
2019-05-22T02:46:53.225Z,16.6
2019-05-22T02:47:53.461Z,16.53
2019-05-22T02:48:53.237Z,16.5
2019-05-22T02:49:53.460Z,16.52
2019-05-22T02:50:53.188Z,16.56
2019-05-22T02:51:53.191Z,16.5
2019-05-22T02:52:53.208Z,16.53
2019-05-22T02:53:53.415Z,16.45
2019-05-22T02:54:53.442Z,16.45
2019-05-22T02:56:05.909Z,16.43
2019-05-22T02:56:53.407Z,16.46
2019-05-22T02:57:53.499Z,16.43
2019-05-22T02:59:06.118Z,16.39
2019-05-22T03:00:06.320Z,16.41
2019-05-22T03:00:53.146Z,16.41
2019-05-22T03:01:53.380Z,16.33
2019-05-22T03:02:53.472Z,16.39
2019-05-22T03:03:53.364Z,16.34
2019-05-22T03:04:53.368Z,16.38
2019-05-22T03:05:53.348Z,16.3
2019-05-22T03:06:53.342Z,16.31
2019-05-22T03:07:53.352Z,16.23
2019-05-22T03:08:53.339Z,16.27
2019-05-22T03:09:53.322Z,16.2
2019-05-22T03:10:53.194Z,16.2
2019-05-22T03:11:54.482Z,16.21
2019-05-22T03:12:53.415Z,16.15
2019-05-22T03:13:53.302Z,16.15
2019-05-22T03:14:53.304Z,16.12
2019-05-22T03:15:53.298Z,16.23
2019-05-22T03:16:53.301Z,16.23
2019-05-22T03:17:53.288Z,16.3
2019-05-22T03:19:12.544Z,16.2
2019-05-22T03:19:53.268Z,16.21
2019-05-22T03:20:53.331Z,16.28
2019-05-22T03:21:53.010Z,16.2
2019-05-22T03:22:53.261Z,16.07
2019-05-22T03:23:53.246Z,16.24
2019-05-22T03:24:53.236Z,16.25
2019-05-22T03:25:53.018Z,16.2
2019-05-22T03:26:52.982Z,16.23
2019-05-22T03:28:00.620Z,16.24
2019-05-22T03:28:53.211Z,16.2
2019-05-22T03:30:00.339Z,16.09
2019-05-22T03:30:53.039Z,16.23
2019-05-22T03:31:53.236Z,16.15
2019-05-22T03:33:06.192Z,16.12
2019-05-22T03:33:53.244Z,16.08
2019-05-22T03:34:53.222Z,16.15
2019-05-22T03:35:52.727Z,16.11
2019-05-22T03:36:52.929Z,16.08
2019-05-22T03:37:53.189Z,16.04
2019-05-22T03:38:53.184Z,15.96
2019-05-22T03:39:53.156Z,15.86
2019-05-22T03:40:53.304Z,15.83
2019-05-22T03:41:52.897Z,15.74
2019-05-22T03:42:53.129Z,15.74
2019-05-22T03:43:53.190Z,15.75
2019-05-22T03:44:53.115Z,15.78
2019-05-22T03:45:53.135Z,15.82
2019-05-22T03:46:53.123Z,15.78
2019-05-22T03:47:53.116Z,15.69
2019-05-22T03:48:53.095Z,15.69
2019-05-22T03:49:53.088Z,15.6
2019-05-22T03:50:53.081Z,15.6
2019-05-22T03:51:53.118Z,15.65
2019-05-22T03:52:53.077Z,15.64
2019-05-22T03:53:53.072Z,15.57
2019-05-22T03:54:53.166Z,15.5
2019-05-22T03:55:52.562Z,15.53
2019-05-22T03:56:52.812Z,15.6
2019-05-22T03:57:53.123Z,15.54
2019-05-22T03:58:53.038Z,15.51
2019-05-22T03:59:53.022Z,15.56
2019-05-22T04:00:53.059Z,15.5
2019-05-22T04:01:53.046Z,15.47
2019-05-22T04:02:53.004Z,15.5
2019-05-22T04:03:53.007Z,15.41
2019-05-22T04:04:53.006Z,15.49
2019-05-22T04:05:52.748Z,15.43
2019-05-22T04:06:52.991Z,15.43
2019-05-22T04:07:52.995Z,15.44
2019-05-22T04:08:52.974Z,15.5
2019-05-22T04:09:52.984Z,15.54
2019-05-22T04:10:52.958Z,15.56
2019-05-22T04:11:52.730Z,15.53
2019-05-22T04:12:52.709Z,15.54
2019-05-22T04:14:00.069Z,15.56
2019-05-22T04:14:52.965Z,15.5
2019-05-22T04:15:52.693Z,15.64
2019-05-22T04:16:52.433Z,15.65
2019-05-22T04:17:52.918Z,15.64
2019-05-22T04:18:52.903Z,15.53
2019-05-22T04:19:55.804Z,15.57
2019-05-22T04:20:52.893Z,15.38
2019-05-22T04:21:52.641Z,15.47
2019-05-22T04:22:52.892Z,15.49
2019-05-22T04:23:52.876Z,15.41
2019-05-22T04:24:52.873Z,15.39
2019-05-22T04:25:55.551Z,15.28
2019-05-22T04:26:52.864Z,15.17
2019-05-22T04:27:52.849Z,15.23
2019-05-22T04:28:52.949Z,15.16
2019-05-22T04:29:52.857Z,15.21
2019-05-22T04:30:52.366Z,15.23
2019-05-22T04:31:52.828Z,15.21
2019-05-22T04:32:52.822Z,15.19
2019-05-22T04:33:52.822Z,15.23
2019-05-22T04:34:52.811Z,15.14
2019-05-22T04:35:52.557Z,15.19
2019-05-22T04:36:52.789Z,15.11
2019-05-22T04:37:52.822Z,15.1
2019-05-22T04:38:52.776Z,15.13
2019-05-22T04:39:52.786Z,15.27
2019-05-22T04:40:52.762Z,15.23
2019-05-22T04:41:52.525Z,15.11
2019-05-22T04:42:52.511Z,15.16
2019-05-22T04:43:52.750Z,15.19
2019-05-22T04:44:52.737Z,15.16
2019-05-22T04:45:52.730Z,15.27
2019-05-22T04:46:52.499Z,15.13
2019-05-22T04:47:52.716Z,15.21
2019-05-22T04:48:52.710Z,15.17
2019-05-22T04:50:11.020Z,15.03
2019-05-22T04:50:52.462Z,15.01
2019-05-22T04:51:52.449Z,15.09
2019-05-22T04:52:52.447Z,15.07
2019-05-22T04:53:52.692Z,14.94
2019-05-22T04:54:55.050Z,14.96
2019-05-22T04:55:52.675Z,14.96
2019-05-22T04:56:52.414Z,14.94
2019-05-22T04:57:52.664Z,15.01
2019-05-22T04:58:52.652Z,14.95
2019-05-22T04:59:52.638Z,14.98
2019-05-22T05:00:52.722Z,14.94
2019-05-22T05:01:52.386Z,14.92
2019-05-22T05:02:52.622Z,14.95
2019-05-22T05:03:52.618Z,14.91
2019-05-22T05:04:52.614Z,14.8
2019-05-22T05:05:52.606Z,14.77
2019-05-22T05:06:52.367Z,14.73
2019-05-22T05:07:52.583Z,14.8
2019-05-22T05:08:52.578Z,14.75
2019-05-22T05:09:53.848Z,14.7
2019-05-22T05:10:52.565Z,14.81
2019-05-22T05:11:52.313Z,14.73
2019-05-22T05:12:52.551Z,14.75
2019-05-22T05:13:52.550Z,14.84
2019-05-22T05:14:52.540Z,14.81
2019-05-22T05:15:52.595Z,14.88
2019-05-22T05:16:52.280Z,14.81
2019-05-22T05:17:52.514Z,14.77
2019-05-22T05:18:52.518Z,14.73
2019-05-22T05:19:52.506Z,14.68
2019-05-22T05:20:52.252Z,14.68
2019-05-22T05:21:52.283Z,14.77
2019-05-22T05:22:52.484Z,14.73
2019-05-22T05:23:52.484Z,14.73
2019-05-22T05:24:55.463Z,14.73
2019-05-22T05:25:52.461Z,14.64
2019-05-22T05:26:52.211Z,14.7
2019-05-22T05:27:52.467Z,14.64
2019-05-22T05:28:52.445Z,14.64
2019-05-22T05:29:52.437Z,14.64
2019-05-22T05:30:52.442Z,14.65
2019-05-22T05:31:52.444Z,14.61
2019-05-22T05:32:52.416Z,14.62
2019-05-22T05:33:52.476Z,14.6
2019-05-22T05:34:52.409Z,14.62
2019-05-22T05:35:52.395Z,14.58
2019-05-22T05:36:52.392Z,14.7
2019-05-22T05:37:52.381Z,14.55
2019-05-22T05:38:52.135Z,14.64
2019-05-22T05:39:52.386Z,14.6
2019-05-22T05:40:52.208Z,14.6
2019-05-22T05:41:52.112Z,14.7
2019-05-22T05:42:52.365Z,14.6
2019-05-22T05:43:52.341Z,14.69
2019-05-22T05:44:52.346Z,14.65
2019-05-22T05:45:52.359Z,14.54
2019-05-22T05:46:52.084Z,14.57
2019-05-22T05:47:52.317Z,14.68
2019-05-22T05:48:52.325Z,14.73
2019-05-22T05:49:52.307Z,14.77
2019-05-22T05:50:52.294Z,14.77
2019-05-22T05:51:52.046Z,14.78
2019-05-22T05:52:52.284Z,14.78
2019-05-22T05:53:52.276Z,14.84
2019-05-22T05:54:52.268Z,14.83
2019-05-22T05:55:52.266Z,14.89
2019-05-22T05:56:52.359Z,14.81
2019-05-22T05:57:52.255Z,14.81
2019-05-22T05:58:52.243Z,14.81
2019-05-22T05:59:52.241Z,14.8
2019-05-22T06:00:52.245Z,14.84
2019-05-22T06:01:52.233Z,14.84
2019-05-22T06:03:01.117Z,14.86
2019-05-22T06:03:52.212Z,14.83
2019-05-22T06:04:52.210Z,14.84
2019-05-22T06:05:52.231Z,14.78
2019-05-22T06:06:51.991Z,14.86
2019-05-22T06:07:52.182Z,14.84
2019-05-22T06:08:52.178Z,14.78
2019-05-22T06:09:52.190Z,14.77
2019-05-22T06:10:52.183Z,14.78
2019-05-22T06:11:51.920Z,14.72
2019-05-22T06:12:52.243Z,14.72
2019-05-22T06:13:51.903Z,14.72
2019-05-22T06:14:52.143Z,14.7
2019-05-22T06:15:52.842Z,14.65
2019-05-22T06:16:52.144Z,14.68
2019-05-22T06:17:52.128Z,14.57
2019-05-22T06:18:52.116Z,14.62
2019-05-22T06:19:52.115Z,14.68
2019-05-22T06:21:08.072Z,14.73
2019-05-22T06:21:52.099Z,14.7
2019-05-22T06:22:52.100Z,14.81
2019-05-22T06:23:52.093Z,14.77
2019-05-22T06:24:52.079Z,14.73
2019-05-22T06:25:52.103Z,14.77
2019-05-22T06:26:51.821Z,14.77
2019-05-22T06:27:52.061Z,14.73
2019-05-22T06:28:51.813Z,14.7
2019-05-22T06:29:52.051Z,14.64
2019-05-22T06:30:52.037Z,14.68
2019-05-22T06:31:52.031Z,14.6
2019-05-22T06:32:51.792Z,14.65
2019-05-22T06:33:52.023Z,14.62
2019-05-22T06:34:52.024Z,14.58
2019-05-22T06:35:52.008Z,14.47
2019-05-22T06:36:51.756Z,14.52
2019-05-22T06:37:52.005Z,14.51
2019-05-22T06:38:51.991Z,14.42
2019-05-22T06:39:51.981Z,14.36
2019-05-22T06:40:51.977Z,14.51
2019-05-22T06:41:51.738Z,14.45
2019-05-22T06:42:51.982Z,14.4
2019-05-22T06:43:51.976Z,14.47
2019-05-22T06:44:51.948Z,14.42
2019-05-22T06:45:51.943Z,14.46
2019-05-22T06:46:51.726Z,14.5
2019-05-22T06:47:51.928Z,14.33
2019-05-22T06:48:51.930Z,14.33
2019-05-22T06:49:51.921Z,14.25
2019-05-22T06:50:53.827Z,14.25
2019-05-22T06:51:51.903Z,14.33
2019-05-22T06:53:07.347Z,14.33
2019-05-22T06:53:51.887Z,14.35
2019-05-22T06:54:51.887Z,14.37
2019-05-22T06:55:51.872Z,14.43
2019-05-22T06:56:51.871Z,14.45
2019-05-22T06:57:51.863Z,14.36
2019-05-22T06:58:51.864Z,14.46
2019-05-22T07:00:11.117Z,14.39
2019-05-22T07:00:51.842Z,14.4
2019-05-22T07:01:59.390Z,14.46
2019-05-22T07:02:51.832Z,14.47
2019-05-22T07:03:51.829Z,14.39
2019-05-22T07:04:51.834Z,14.33
2019-05-22T07:05:51.811Z,14.39
2019-05-22T07:06:51.803Z,14.4
2019-05-22T07:07:51.796Z,14.33
2019-05-22T07:08:51.791Z,14.33
2019-05-22T07:09:51.788Z,14.25
2019-05-22T07:10:51.778Z,14.22
2019-05-22T07:11:51.776Z,14.32
2019-05-22T07:12:55.452Z,14.36
2019-05-22T07:13:51.770Z,14.27
2019-05-22T07:14:51.790Z,14.36
2019-05-22T07:15:51.783Z,14.35
2019-05-22T07:16:51.735Z,14.4
2019-05-22T07:17:51.735Z,14.4
2019-05-22T07:18:51.724Z,14.4
2019-05-22T07:19:51.719Z,14.46
2019-05-22T07:20:51.812Z,14.4
2019-05-22T07:21:51.700Z,14.36
2019-05-22T07:22:51.695Z,14.29
2019-05-22T07:23:51.690Z,14.35
2019-05-22T07:24:51.681Z,14.47
2019-05-22T07:25:51.681Z,14.47
2019-05-22T07:26:51.662Z,14.4
2019-05-22T07:27:51.666Z,14.45
2019-05-22T07:28:51.651Z,14.37
2019-05-22T07:29:51.645Z,14.47
2019-05-22T07:30:51.647Z,14.39
2019-05-22T07:31:51.640Z,14.45
2019-05-22T07:32:51.392Z,14.45
2019-05-22T07:33:51.627Z,14.55
2019-05-22T07:34:51.611Z,14.5
2019-05-22T07:36:18.781Z,14.43
2019-05-22T07:36:51.605Z,14.55
2019-05-22T07:37:51.601Z,14.51
2019-05-22T07:38:51.664Z,14.64
2019-05-22T07:39:51.658Z,14.57
2019-05-22T07:40:55.447Z,14.54
2019-05-22T07:41:51.580Z,14.65
2019-05-22T07:42:51.600Z,14.61
2019-05-22T07:43:51.555Z,14.7
2019-05-22T07:44:51.546Z,14.58
2019-05-22T07:45:51.636Z,14.57
2019-05-22T07:46:51.531Z,14.69
2019-05-22T07:47:51.289Z,14.61
2019-05-22T07:48:51.529Z,14.64
2019-05-22T07:49:51.524Z,14.68
2019-05-22T07:50:53.893Z,14.65
2019-05-22T07:52:04.019Z,14.72
2019-05-22T07:52:51.504Z,14.75
2019-05-22T07:53:51.511Z,14.68
2019-05-22T07:54:51.483Z,14.64
2019-05-22T07:55:51.499Z,14.73
2019-05-22T07:56:51.471Z,14.72
2019-05-22T07:57:51.468Z,14.77
2019-05-22T07:58:51.457Z,14.72
2019-05-22T07:59:51.476Z,14.78
2019-05-22T08:00:51.467Z,14.75
2019-05-22T08:01:51.461Z,14.86
2019-05-22T08:02:51.448Z,14.8
2019-05-22T08:03:51.427Z,14.83
2019-05-22T08:04:51.422Z,14.91
2019-05-22T08:05:51.412Z,14.84
2019-05-22T08:06:51.402Z,14.83
2019-05-22T08:07:51.664Z,14.88
2019-05-22T08:08:51.390Z,14.86
2019-05-22T08:09:51.386Z,14.83
2019-05-22T08:10:51.394Z,14.84
2019-05-22T08:11:51.506Z,14.83
2019-05-22T08:12:51.373Z,14.81
2019-05-22T08:13:51.362Z,14.81
2019-05-22T08:14:51.353Z,14.89
2019-05-22T08:15:52.632Z,14.86
2019-05-22T08:16:51.344Z,14.84
2019-05-22T08:17:51.332Z,14.91
2019-05-22T08:18:51.099Z,14.88
2019-05-22T08:19:51.194Z,14.91
2019-05-22T08:20:50.856Z,14.89
2019-05-22T08:22:04.652Z,14.98
2019-05-22T08:22:51.329Z,15.02
2019-05-22T08:23:51.303Z,15.06
2019-05-22T08:24:51.296Z,15.03
2019-05-22T08:25:51.291Z,15.01
2019-05-22T08:26:59.481Z,15.09
2019-05-22T08:27:51.265Z,15.11
2019-05-22T08:28:51.560Z,15.06
2019-05-22T08:29:51.261Z,15.07
2019-05-22T08:30:51.252Z,15.07
2019-05-22T08:31:51.253Z,14.98
2019-05-22T08:32:51.249Z,15.06
2019-05-22T08:33:51.238Z,15.06
2019-05-22T08:34:51.233Z,15.06
2019-05-22T08:35:51.224Z,15.06
2019-05-22T08:36:51.219Z,15.07
2019-05-22T08:37:51.212Z,15.14
2019-05-22T08:38:51.221Z,15.13
2019-05-22T08:39:51.197Z,15.23
2019-05-22T08:40:51.198Z,15.23
2019-05-22T08:41:51.183Z,15.27
2019-05-22T08:42:51.188Z,15.28
2019-05-22T08:44:20.383Z,15.46
2019-05-22T08:44:50.930Z,15.44
2019-05-22T08:45:51.161Z,15.46
2019-05-22T08:46:51.405Z,15.41
2019-05-22T08:47:51.157Z,15.46
2019-05-22T08:48:53.709Z,15.32
2019-05-22T08:49:51.136Z,15.36
2019-05-22T08:50:51.131Z,15.36
2019-05-22T08:51:51.123Z,15.34
2019-05-22T08:52:51.122Z,15.47
2019-05-22T08:53:53.319Z,15.43
2019-05-22T08:54:51.114Z,15.41
2019-05-22T08:55:51.105Z,15.36
2019-05-22T08:56:51.108Z,15.47
2019-05-22T08:57:51.151Z,15.46
2019-05-22T08:58:51.103Z,15.44
2019-05-22T08:59:51.073Z,15.51
2019-05-22T09:00:51.192Z,15.51
2019-05-22T09:01:51.110Z,15.51
2019-05-22T09:02:50.816Z,15.34
2019-05-22T09:03:51.138Z,15.38
2019-05-22T09:04:51.064Z,15.38
2019-05-22T09:05:51.281Z,15.44
2019-05-22T09:06:51.038Z,15.44
2019-05-22T09:07:51.034Z,15.43
2019-05-22T09:08:51.064Z,15.35
2019-05-22T09:09:51.021Z,15.36
2019-05-22T09:10:51.027Z,15.49
2019-05-22T09:11:51.019Z,15.39
2019-05-22T09:12:51.009Z,15.43
2019-05-22T09:13:50.998Z,15.41
2019-05-22T09:14:50.988Z,15.53
2019-05-22T09:15:50.980Z,15.51
2019-05-22T09:16:51.034Z,15.51
2019-05-22T09:17:50.973Z,15.56
2019-05-22T09:18:51.099Z,15.5
2019-05-22T09:19:51.081Z,15.6
2019-05-22T09:20:54.358Z,15.64
2019-05-22T09:21:50.943Z,15.65
2019-05-22T09:22:50.979Z,15.65
2019-05-22T09:23:50.986Z,15.75
2019-05-22T09:24:51.027Z,15.78
2019-05-22T09:25:50.920Z,15.72
2019-05-22T09:26:50.917Z,15.67
2019-05-22T09:27:50.927Z,15.68
2019-05-22T09:28:50.914Z,15.72
2019-05-22T09:29:50.903Z,15.76
2019-05-22T09:30:50.899Z,15.76
2019-05-22T09:31:50.907Z,15.78
2019-05-22T09:32:52.450Z,15.72
2019-05-22T09:33:50.936Z,15.76
2019-05-22T09:34:50.908Z,15.8
2019-05-22T09:35:50.877Z,15.84
2019-05-22T09:36:50.875Z,15.82
2019-05-22T09:37:50.977Z,15.84
2019-05-22T09:38:54.459Z,15.82
2019-05-22T09:39:50.841Z,15.89
2019-05-22T09:40:50.841Z,15.74
2019-05-22T09:41:50.840Z,15.75
2019-05-22T09:42:50.837Z,15.75
2019-05-22T09:43:50.815Z,15.74
2019-05-22T09:44:50.825Z,15.78
2019-05-22T09:45:50.819Z,15.83
2019-05-22T09:46:50.705Z,15.96
2019-05-22T09:47:50.904Z,16.02
2019-05-22T09:48:50.852Z,15.97
2019-05-22T09:49:50.894Z,16.04
2019-05-22T09:50:50.823Z,15.92
2019-05-22T09:51:50.775Z,16.04
2019-05-22T09:53:01.861Z,16.08
2019-05-22T09:53:50.767Z,15.96
2019-05-22T09:54:50.763Z,16.07
2019-05-22T09:55:52.310Z,16.09
2019-05-22T09:56:50.745Z,16.12
2019-05-22T09:57:50.766Z,16.23
2019-05-22T09:58:50.769Z,16.12
2019-05-22T09:59:50.737Z,16.15
2019-05-22T10:00:50.735Z,16.23
2019-05-22T10:01:50.723Z,16.31
2019-05-22T10:02:50.722Z,16.24
2019-05-22T10:03:50.709Z,16.28
2019-05-22T10:04:50.707Z,16.31
2019-05-22T10:05:51.021Z,16.25
2019-05-22T10:06:50.689Z,16.3
2019-05-22T10:08:05.364Z,16.34
2019-05-22T10:08:50.682Z,16.33
2019-05-22T10:09:50.678Z,16.45
2019-05-22T10:10:50.671Z,16.49
2019-05-22T10:11:50.670Z,16.52
2019-05-22T10:12:50.689Z,16.56
2019-05-22T10:13:51.359Z,16.57
2019-05-22T10:14:51.173Z,16.49
2019-05-22T10:15:50.647Z,16.7
2019-05-22T10:16:50.454Z,16.61
2019-05-22T10:17:50.639Z,16.58
2019-05-22T10:18:55.305Z,16.68
2019-05-22T10:19:50.652Z,16.78
2019-05-22T10:20:50.631Z,16.86
2019-05-22T10:21:50.614Z,16.93
2019-05-22T10:22:50.437Z,16.94
2019-05-22T10:23:50.383Z,16.97
2019-05-22T10:25:13.698Z,17.06
2019-05-22T10:25:50.603Z,17.15
2019-05-22T10:26:50.601Z,17.15
2019-05-22T10:27:50.371Z,17.06
2019-05-22T10:28:50.618Z,17.03
2019-05-22T10:29:50.580Z,16.94
2019-05-22T10:30:50.601Z,16.97
2019-05-22T10:31:50.562Z,16.88
2019-05-22T10:32:50.618Z,16.83
2019-05-22T10:33:54.265Z,16.85
2019-05-22T10:34:50.559Z,16.89
2019-05-22T10:35:50.569Z,16.89
2019-05-22T10:36:50.545Z,16.83
2019-05-22T10:37:50.536Z,16.83
2019-05-22T10:38:50.530Z,16.83
2019-05-22T10:39:50.527Z,16.83
2019-05-22T10:40:50.586Z,16.81
2019-05-22T10:41:50.565Z,16.75
2019-05-22T10:42:50.546Z,16.71
2019-05-22T10:43:50.501Z,16.75
2019-05-22T10:44:50.506Z,16.79
2019-05-22T10:45:50.499Z,16.68
2019-05-22T10:46:50.485Z,16.6
2019-05-22T10:47:50.488Z,16.56
2019-05-22T10:48:50.480Z,16.63
2019-05-22T10:49:50.475Z,16.53
2019-05-22T10:50:50.478Z,16.41
2019-05-22T10:51:50.458Z,16.49
2019-05-22T10:52:56.448Z,16.42
2019-05-22T10:53:50.452Z,16.42
2019-05-22T10:54:50.451Z,16.48
2019-05-22T10:55:50.195Z,16.43
2019-05-22T10:56:50.434Z,16.45
2019-05-22T10:57:50.472Z,16.41
2019-05-22T10:58:50.427Z,16.45
2019-05-22T10:59:50.450Z,16.45
2019-05-22T11:00:50.418Z,16.41
2019-05-22T11:01:50.403Z,16.38
2019-05-22T11:02:50.427Z,16.35
2019-05-22T11:03:50.412Z,16.27
2019-05-22T11:04:50.413Z,16.24
2019-05-22T11:06:08.347Z,16.14
2019-05-22T11:06:50.382Z,16.09
2019-05-22T11:07:50.595Z,16.11
2019-05-22T11:08:50.373Z,16.08
2019-05-22T11:09:50.379Z,16.07
2019-05-22T11:10:50.442Z,16.04
2019-05-22T11:11:50.353Z,15.94
2019-05-22T11:12:50.360Z,16.01
2019-05-22T11:14:08.751Z,15.96
2019-05-22T11:14:50.093Z,15.96
2019-05-22T11:15:50.338Z,15.93
2019-05-22T11:16:50.332Z,15.96
2019-05-22T11:17:50.088Z,15.89
2019-05-22T11:18:50.321Z,16.01
2019-05-22T11:19:50.310Z,15.97
2019-05-22T11:20:50.347Z,15.96
2019-05-22T11:21:50.293Z,16.07
2019-05-22T11:22:50.296Z,16
2019-05-22T11:23:56.860Z,15.96
2019-05-22T11:24:50.278Z,15.93
2019-05-22T11:25:50.300Z,16.01
2019-05-22T11:26:50.264Z,15.97
2019-05-22T11:27:50.262Z,16
2019-05-22T11:28:50.276Z,15.96
2019-05-22T11:29:50.254Z,15.97
2019-05-22T11:30:49.754Z,15.97
2019-05-22T11:31:50.234Z,15.89
2019-05-22T11:32:50.255Z,15.97
2019-05-22T11:33:50.233Z,15.93
2019-05-22T11:34:50.237Z,15.92
2019-05-22T11:35:50.223Z,15.97
2019-05-22T11:36:50.207Z,16.01
2019-05-22T11:37:50.225Z,16.01
2019-05-22T11:38:50.196Z,16
2019-05-22T11:39:49.975Z,15.94
2019-05-22T11:40:50.188Z,15.89
2019-05-22T11:41:49.962Z,15.72
2019-05-22T11:42:50.289Z,15.82
2019-05-22T11:43:50.189Z,15.75
2019-05-22T11:44:50.164Z,15.72
2019-05-22T11:45:50.390Z,15.76
2019-05-22T11:46:50.150Z,15.75
2019-05-22T11:47:50.166Z,15.78
2019-05-22T11:48:50.137Z,15.78
2019-05-22T11:49:50.187Z,15.78
2019-05-22T11:50:50.127Z,15.82
2019-05-22T11:51:50.120Z,15.78
2019-05-22T11:52:50.123Z,15.92
2019-05-22T11:53:50.118Z,15.86
2019-05-22T11:54:49.880Z,15.92
2019-05-22T11:55:51.066Z,15.94
2019-05-22T11:56:50.090Z,15.92
2019-05-22T11:57:49.844Z,15.92
2019-05-22T11:58:50.089Z,15.84
2019-05-22T11:59:50.068Z,15.89
2019-05-22T12:00:49.900Z,15.82
2019-05-22T12:01:50.058Z,15.87
2019-05-22T12:02:50.060Z,15.83
2019-05-22T12:03:50.056Z,15.93
2019-05-22T12:04:53.223Z,15.93
2019-05-22T12:05:49.795Z,16
2019-05-22T12:06:53.385Z,16
2019-05-22T12:07:50.026Z,16
2019-05-22T12:08:50.125Z,15.97
2019-05-22T12:09:50.012Z,16
2019-05-22T12:10:50.020Z,16.02
2019-05-22T12:11:50.015Z,16.05
2019-05-22T12:12:50.066Z,15.97
2019-05-22T12:13:49.998Z,15.97
2019-05-22T12:14:50.028Z,16.05
2019-05-22T12:15:49.756Z,16.04
2019-05-22T12:16:52.987Z,16.08
2019-05-22T12:17:49.973Z,16.07
2019-05-22T12:18:49.969Z,16.05
2019-05-22T12:19:49.975Z,16.01
2019-05-22T12:20:49.959Z,16.07
2019-05-22T12:21:49.942Z,16.07
2019-05-22T12:22:49.940Z,15.96
2019-05-22T12:23:49.942Z,16.05
2019-05-22T12:24:49.934Z,16.02
2019-05-22T12:25:49.430Z,16.01
2019-05-22T12:26:49.913Z,16.08
2019-05-22T12:27:49.910Z,16.02
2019-05-22T12:28:49.682Z,16
2019-05-22T12:29:49.962Z,16
2019-05-22T12:30:49.997Z,15.93
2019-05-22T12:31:49.895Z,16.01
2019-05-22T12:32:49.914Z,16
2019-05-22T12:33:49.630Z,16
2019-05-22T12:34:52.003Z,16.05
2019-05-22T12:35:49.372Z,16
2019-05-22T12:36:53.528Z,15.97
2019-05-22T12:37:50.097Z,15.97
2019-05-22T12:38:50.039Z,15.96
2019-05-22T12:39:49.836Z,16.05
2019-05-22T12:40:49.354Z,16.05
2019-05-22T12:41:49.843Z,16.04
2019-05-22T12:42:49.830Z,16.02
2019-05-22T12:43:50.008Z,16.04
2019-05-22T12:44:49.822Z,15.93
2019-05-22T12:45:49.337Z,15.94
2019-05-22T12:46:49.802Z,15.84
2019-05-22T12:47:49.813Z,15.83
2019-05-22T12:48:49.632Z,15.86
2019-05-22T12:49:49.823Z,15.92
2019-05-22T12:50:49.531Z,15.96
2019-05-22T12:51:49.770Z,16
2019-05-22T12:52:49.772Z,15.97
2019-05-22T12:53:49.759Z,16
2019-05-22T12:54:55.463Z,15.94
2019-05-22T12:55:49.263Z,15.92
2019-05-22T12:56:49.792Z,15.94